SWA1775 KSTL-KMDW
Flight info
| Callsign | SWA1775 |
|---|---|
| Flight time | 0h 51m |
| Altitude | 27000 |
| Route | NATCA5 SPI PHEEB ENDEE8 |
| Aircraft | B738/M-SDE2E3FGHIRWXY/LB1 |
Departure
| Time | 2026-05-06 20:00 |
|---|---|
| Airport | St. Louis Lambert International Airport (KSTL) |
Arrival
| Time | 2026-05-06 20:51 |
|---|---|
| Airport | Chicago Midway International Airport (KMDW) |
| Time | Latitude | Longitude | Altitude | Speed | Heading |
|---|---|---|---|---|---|
| 2026-05-06 19:19 | 38.73820 | -90.35883 | 622 ft | 0 kts | 232° |
| 2026-05-06 19:51 | 38.73833 | -90.35865 | 628 ft | 3 kts | 214° |
| 2026-05-06 19:51 | 38.73851 | -90.35854 | 624 ft | 3 kts | 184° |
| 2026-05-06 19:51 | 38.73868 | -90.35856 | 628 ft | 3 kts | 138° |
| 2026-05-06 19:52 | 38.73876 | -90.35869 | 627 ft | 1 kts | 108° |
| 2026-05-06 19:52 | 38.73877 | -90.35872 | 627 ft | 0 kts | 108° |
| 2026-05-06 19:55 | 38.73874 | -90.35860 | 616 ft | 4 kts | 107° |
| 2026-05-06 19:56 | 38.73867 | -90.35808 | 619 ft | 8 kts | 83° |
| 2026-05-06 19:56 | 38.73909 | -90.35749 | 616 ft | 11 kts | 33° |
| 2026-05-06 19:56 | 38.73979 | -90.35692 | 633 ft | 13 kts | 32° |
| 2026-05-06 19:56 | 38.74048 | -90.35617 | 621 ft | 14 kts | 58° |
| 2026-05-06 19:57 | 38.74056 | -90.35494 | 622 ft | 15 kts | 115° |
| 2026-05-06 19:57 | 38.73997 | -90.35372 | 617 ft | 17 kts | 122° |
| 2026-05-06 19:57 | 38.73928 | -90.35233 | 616 ft | 20 kts | 122° |
| 2026-05-06 19:57 | 38.73848 | -90.35071 | 628 ft | 23 kts | 122° |
| 2026-05-06 19:58 | 38.73764 | -90.34902 | 617 ft | 20 kts | 122° |
| 2026-05-06 19:58 | 38.73710 | -90.34791 | 619 ft | 12 kts | 120° |
| 2026-05-06 19:58 | 38.73733 | -90.34703 | 618 ft | 11 kts | 34° |
| 2026-05-06 19:58 | 38.73781 | -90.34668 | 622 ft | 4 kts | 8° |
| 2026-05-06 19:59 | 38.73799 | -90.34689 | 625 ft | 0 kts | 304° |
| 2026-05-06 19:59 | 38.73849 | -90.34789 | 621 ft | 43 kts | 302° |
| 2026-05-06 19:59 | 38.74137 | -90.35372 | 620 ft | 110 kts | 302° |
| 2026-05-06 20:00 | 38.74649 | -90.36392 | 682 ft | 156 kts | 303° |
| 2026-05-06 20:00 | 38.75244 | -90.37532 | 1395 ft | 154 kts | 306° |
| 2026-05-06 20:00 | 38.75856 | -90.38687 | 2103 ft | 160 kts | 306° |
| 2026-05-06 20:00 | 38.76636 | -90.39655 | 2884 ft | 153 kts | 337° |
| 2026-05-06 20:01 | 38.77699 | -90.39883 | 3535 ft | 162 kts | 356° |
| 2026-05-06 20:01 | 38.78865 | -90.39982 | 4066 ft | 176 kts | 354° |
| 2026-05-06 20:01 | 38.80118 | -90.40170 | 4716 ft | 184 kts | 351° |
| 2026-05-06 20:01 | 38.81372 | -90.40396 | 5485 ft | 185 kts | 349° |
| 2026-05-06 20:02 | 38.82676 | -90.40632 | 6040 ft | 194 kts | 349° |
| 2026-05-06 20:02 | 38.84099 | -90.40531 | 6269 ft | 222 kts | 12° |
| 2026-05-06 20:02 | 38.85684 | -90.39934 | 6494 ft | 250 kts | 15° |
| 2026-05-06 20:02 | 38.86794 | -90.39451 | 6854 ft | 257 kts | 17° |
| 2026-05-06 20:03 | 38.88448 | -90.38645 | 7732 ft | 255 kts | 18° |
| 2026-05-06 20:03 | 38.90105 | -90.37682 | 8267 ft | 270 kts | 29° |
| 2026-05-06 20:03 | 38.91579 | -90.36099 | 8837 ft | 282 kts | 36° |
| 2026-05-06 20:03 | 38.93119 | -90.34524 | 9581 ft | 283 kts | 34° |
| 2026-05-06 20:04 | 38.94698 | -90.33026 | 10345 ft | 282 kts | 27° |
| 2026-05-06 20:04 | 38.96420 | -90.31757 | 10799 ft | 291 kts | 20° |
| 2026-05-06 20:04 | 38.98265 | -90.30569 | 11270 ft | 302 kts | 20° |
| 2026-05-06 20:04 | 39.00171 | -90.29339 | 11813 ft | 312 kts | 20° |
| 2026-05-06 20:05 | 39.02085 | -90.27865 | 12247 ft | 331 kts | 29° |
| 2026-05-06 20:05 | 39.03916 | -90.25938 | 12706 ft | 347 kts | 35° |
| 2026-05-06 20:05 | 39.05758 | -90.23815 | 13086 ft | 364 kts | 37° |
| 2026-05-06 20:05 | 39.05887 | -90.23664 | 13109 ft | 365 kts | 37° |
| 2026-05-06 20:12 | 39.06198 | -90.23295 | 13171 ft | 366 kts | 37° |
| 2026-05-06 20:13 | 39.08152 | -90.21144 | 13421 ft | 374 kts | 28° |
| 2026-05-06 20:13 | 39.10355 | -90.19303 | 13812 ft | 381 kts | 24° |
| 2026-05-06 20:13 | 39.12644 | -90.17527 | 14341 ft | 386 kts | 24° |
| 2026-05-06 20:13 | 39.14931 | -90.15720 | 15033 ft | 386 kts | 24° |
| 2026-05-06 20:14 | 39.17214 | -90.13853 | 15601 ft | 392 kts | 25° |
| 2026-05-06 20:14 | 39.19511 | -90.11920 | 16114 ft | 398 kts | 25° |
| 2026-05-06 20:14 | 39.21834 | -90.09926 | 16696 ft | 403 kts | 25° |
| 2026-05-06 20:14 | 39.24173 | -90.07897 | 17288 ft | 407 kts | 25° |
| 2026-05-06 20:15 | 39.26537 | -90.05839 | 17840 ft | 412 kts | 25° |
| 2026-05-06 20:15 | 39.28929 | -90.03757 | 18397 ft | 417 kts | 25° |
| 2026-05-06 20:15 | 39.31345 | -90.01655 | 18856 ft | 422 kts | 25° |
| 2026-05-06 20:15 | 39.33810 | -89.99554 | 19287 ft | 425 kts | 21° |
| 2026-05-06 20:16 | 39.36404 | -89.97746 | 19745 ft | 424 kts | 15° |
| 2026-05-06 20:16 | 39.39071 | -89.96084 | 20194 ft | 427 kts | 14° |
| 2026-05-06 20:16 | 39.41745 | -89.94469 | 20647 ft | 432 kts | 13° |
| 2026-05-06 20:16 | 39.44514 | -89.92793 | 21101 ft | 437 kts | 14° |
| 2026-05-06 20:17 | 39.47287 | -89.91092 | 21536 ft | 443 kts | 14° |
| 2026-05-06 20:17 | 39.50076 | -89.89358 | 21962 ft | 448 kts | 14° |
| 2026-05-06 20:17 | 39.52864 | -89.87608 | 22383 ft | 453 kts | 14° |
| 2026-05-06 20:17 | 39.55715 | -89.85806 | 22807 ft | 458 kts | 14° |
| 2026-05-06 20:18 | 39.58595 | -89.83980 | 23287 ft | 463 kts | 14° |
| 2026-05-06 20:18 | 39.61488 | -89.82141 | 23791 ft | 464 kts | 14° |
| 2026-05-06 20:18 | 39.64399 | -89.80290 | 24152 ft | 468 kts | 13° |
| 2026-05-06 20:18 | 39.67331 | -89.78428 | 24479 ft | 472 kts | 13° |
| 2026-05-06 20:19 | 39.70293 | -89.76545 | 24829 ft | 476 kts | 13° |
| 2026-05-06 20:19 | 39.73275 | -89.74647 | 25187 ft | 479 kts | 13° |
| 2026-05-06 20:19 | 39.76274 | -89.72735 | 25543 ft | 482 kts | 13° |
| 2026-05-06 20:19 | 39.79297 | -89.70808 | 25890 ft | 486 kts | 13° |
| 2026-05-06 20:20 | 39.82334 | -89.68871 | 26296 ft | 488 kts | 13° |
| 2026-05-06 20:20 | 39.85354 | -89.66723 | 26666 ft | 503 kts | 21° |
| 2026-05-06 20:20 | 39.88257 | -89.64097 | 26976 ft | 512 kts | 25° |
| 2026-05-06 20:20 | 39.91132 | -89.61317 | 27070 ft | 515 kts | 26° |
| 2026-05-06 20:21 | 39.93953 | -89.58519 | 27047 ft | 503 kts | 26° |
| 2026-05-06 20:21 | 39.96708 | -89.55786 | 27058 ft | 494 kts | 26° |
| 2026-05-06 20:21 | 39.99439 | -89.53120 | 27061 ft | 490 kts | 25° |
| 2026-05-06 20:21 | 40.02152 | -89.50513 | 27073 ft | 490 kts | 24° |
| 2026-05-06 20:22 | 40.04937 | -89.47859 | 27118 ft | 491 kts | 24° |
| 2026-05-06 20:22 | 40.07667 | -89.45264 | 27074 ft | 492 kts | 24° |
| 2026-05-06 20:22 | 40.10432 | -89.42629 | 27082 ft | 492 kts | 25° |
| 2026-05-06 20:22 | 40.13192 | -89.39990 | 27079 ft | 491 kts | 25° |
| 2026-05-06 20:23 | 40.15947 | -89.37349 | 27076 ft | 491 kts | 25° |
| 2026-05-06 20:23 | 40.18694 | -89.34711 | 27058 ft | 490 kts | 25° |
| 2026-05-06 20:23 | 40.21444 | -89.32070 | 26720 ft | 490 kts | 25° |
| 2026-05-06 20:23 | 40.24179 | -89.29437 | 26364 ft | 487 kts | 25° |
| 2026-05-06 20:24 | 40.26898 | -89.26819 | 26034 ft | 483 kts | 26° |
| 2026-05-06 20:24 | 40.29600 | -89.24218 | 25615 ft | 481 kts | 26° |
| 2026-05-06 20:24 | 40.32282 | -89.21635 | 25200 ft | 478 kts | 26° |
| 2026-05-06 20:24 | 40.34955 | -89.19060 | 24798 ft | 475 kts | 26° |
| 2026-05-06 20:25 | 40.37616 | -89.16491 | 24424 ft | 472 kts | 26° |
| 2026-05-06 20:25 | 40.40279 | -89.14025 | 24003 ft | 465 kts | 21° |
| 2026-05-06 20:25 | 40.43101 | -89.12058 | 23406 ft | 455 kts | 13° |
| 2026-05-06 20:25 | 40.45973 | -89.10332 | 22826 ft | 454 kts | 14° |
| 2026-05-06 20:26 | 40.48835 | -89.08578 | 22300 ft | 454 kts | 17° |
| 2026-05-06 20:26 | 40.51671 | -89.06783 | 21728 ft | 449 kts | 18° |
| 2026-05-06 20:26 | 40.54443 | -89.04993 | 21202 ft | 439 kts | 18° |
| 2026-05-06 20:26 | 40.57150 | -89.03233 | 20686 ft | 429 kts | 18° |
| 2026-05-06 20:27 | 40.59799 | -89.01511 | 20189 ft | 420 kts | 19° |
| 2026-05-06 20:27 | 40.62394 | -88.99828 | 19712 ft | 411 kts | 19° |
| 2026-05-06 20:27 | 40.64935 | -88.98184 | 19236 ft | 403 kts | 19° |
| 2026-05-06 20:27 | 40.67432 | -88.96569 | 18770 ft | 396 kts | 19° |
| 2026-05-06 20:28 | 40.69884 | -88.94984 | 18318 ft | 389 kts | 20° |
| 2026-05-06 20:28 | 40.72296 | -88.93423 | 17805 ft | 383 kts | 20° |
| 2026-05-06 20:28 | 40.74664 | -88.91889 | 17329 ft | 376 kts | 20° |
| 2026-05-06 20:28 | 40.76988 | -88.90381 | 16888 ft | 369 kts | 20° |
| 2026-05-06 20:29 | 40.79276 | -88.88897 | 16452 ft | 364 kts | 20° |
| 2026-05-06 20:29 | 40.81546 | -88.87425 | 16029 ft | 362 kts | 20° |
| 2026-05-06 20:29 | 40.83798 | -88.85963 | 15601 ft | 359 kts | 20° |
| 2026-05-06 20:29 | 40.86003 | -88.84527 | 15195 ft | 357 kts | 20° |
| 2026-05-06 20:30 | 40.88222 | -88.83082 | 14776 ft | 354 kts | 20° |
| 2026-05-06 20:30 | 40.92640 | -88.80209 | 13966 ft | 350 kts | 20° |
| 2026-05-06 20:30 | 40.94788 | -88.78811 | 13522 ft | 347 kts | 20° |
| 2026-05-06 20:31 | 40.96949 | -88.77404 | 13084 ft | 345 kts | 20° |
| 2026-05-06 20:31 | 40.99088 | -88.76009 | 12660 ft | 341 kts | 20° |
| 2026-05-06 20:31 | 41.01206 | -88.74626 | 12260 ft | 337 kts | 20° |
| 2026-05-06 20:31 | 41.03293 | -88.73264 | 11862 ft | 333 kts | 20° |
| 2026-05-06 20:32 | 41.05360 | -88.71913 | 11472 ft | 329 kts | 20° |
| 2026-05-06 20:32 | 41.07403 | -88.70578 | 11090 ft | 325 kts | 21° |
| 2026-05-06 20:32 | 41.09415 | -88.69261 | 10717 ft | 320 kts | 21° |
| 2026-05-06 20:32 | 41.11397 | -88.67963 | 10337 ft | 315 kts | 21° |
| 2026-05-06 20:33 | 41.13352 | -88.66683 | 9977 ft | 311 kts | 21° |
| 2026-05-06 20:33 | 41.15240 | -88.65442 | 9952 ft | 293 kts | 21° |
| 2026-05-06 20:33 | 41.17025 | -88.64267 | 9629 ft | 285 kts | 21° |
| 2026-05-06 20:33 | 41.18836 | -88.63085 | 9074 ft | 287 kts | 21° |
| 2026-05-06 20:34 | 41.20612 | -88.61922 | 8777 ft | 280 kts | 21° |
| 2026-05-06 20:34 | 41.22332 | -88.60794 | 8573 ft | 272 kts | 21° |
| 2026-05-06 20:34 | 41.24010 | -88.59694 | 8396 ft | 267 kts | 21° |
| 2026-05-06 20:34 | 41.25670 | -88.58608 | 8225 ft | 267 kts | 21° |
| 2026-05-06 20:35 | 41.27349 | -88.57509 | 8057 ft | 271 kts | 21° |
| 2026-05-06 20:35 | 41.29044 | -88.56398 | 7884 ft | 272 kts | 21° |
| 2026-05-06 20:35 | 41.30739 | -88.55286 | 7691 ft | 270 kts | 22° |
| 2026-05-06 20:35 | 41.32411 | -88.54186 | 7519 ft | 267 kts | 22° |
| 2026-05-06 20:36 | 41.34071 | -88.53093 | 7345 ft | 265 kts | 22° |
| 2026-05-06 20:36 | 41.35720 | -88.52008 | 7173 ft | 263 kts | 21° |
| 2026-05-06 20:36 | 41.37336 | -88.50867 | 7007 ft | 265 kts | 32° |
| 2026-05-06 20:36 | 41.38607 | -88.49087 | 6926 ft | 267 kts | 48° |
| 2026-05-06 20:37 | 41.39774 | -88.47116 | 6865 ft | 275 kts | 48° |
| 2026-05-06 20:37 | 41.40969 | -88.45112 | 6760 ft | 276 kts | 48° |
| 2026-05-06 20:37 | 41.42168 | -88.43114 | 6651 ft | 276 kts | 48° |
| 2026-05-06 20:37 | 41.43351 | -88.41149 | 6560 ft | 275 kts | 48° |
| 2026-05-06 20:38 | 41.44549 | -88.39164 | 6471 ft | 274 kts | 47° |
| 2026-05-06 20:38 | 41.45731 | -88.37213 | 6383 ft | 269 kts | 48° |
| 2026-05-06 20:38 | 41.46905 | -88.35276 | 6269 ft | 267 kts | 47° |
| 2026-05-06 20:38 | 41.48061 | -88.33368 | 6184 ft | 264 kts | 47° |
| 2026-05-06 20:39 | 41.49221 | -88.31455 | 6114 ft | 266 kts | 47° |
| 2026-05-06 20:39 | 41.50358 | -88.29496 | 6032 ft | 271 kts | 56° |
| 2026-05-06 20:39 | 41.50920 | -88.27090 | 5961 ft | 274 kts | 81° |
| 2026-05-06 20:39 | 41.51145 | -88.24569 | 5905 ft | 275 kts | 82° |
| 2026-05-06 20:40 | 41.51363 | -88.22033 | 5836 ft | 275 kts | 82° |
| 2026-05-06 20:40 | 41.51582 | -88.19490 | 5767 ft | 276 kts | 82° |
| 2026-05-06 20:40 | 41.51805 | -88.16942 | 5704 ft | 277 kts | 81° |
| 2026-05-06 20:40 | 41.52031 | -88.14389 | 5623 ft | 277 kts | 81° |
| 2026-05-06 20:41 | 41.52257 | -88.11847 | 5560 ft | 275 kts | 81° |
| 2026-05-06 20:41 | 41.52484 | -88.09313 | 5495 ft | 275 kts | 81° |
| 2026-05-06 20:41 | 41.52713 | -88.06774 | 5439 ft | 277 kts | 82° |
| 2026-05-06 20:41 | 41.52942 | -88.04214 | 5377 ft | 279 kts | 82° |
| 2026-05-06 20:42 | 41.53171 | -88.01644 | 5286 ft | 279 kts | 82° |
| 2026-05-06 20:42 | 41.53400 | -87.99103 | 5202 ft | 272 kts | 82° |
| 2026-05-06 20:42 | 41.53624 | -87.96622 | 5141 ft | 267 kts | 82° |
| 2026-05-06 20:42 | 41.53840 | -87.94175 | 5077 ft | 262 kts | 82° |
| 2026-05-06 20:43 | 41.54057 | -87.91752 | 5028 ft | 265 kts | 81° |
| 2026-05-06 20:43 | 41.54279 | -87.89283 | 4973 ft | 271 kts | 82° |
| 2026-05-06 20:43 | 41.54503 | -87.86765 | 4923 ft | 275 kts | 82° |
| 2026-05-06 20:43 | 41.54726 | -87.84226 | 4841 ft | 275 kts | 82° |
| 2026-05-06 20:44 | 41.54942 | -87.81687 | 4782 ft | 275 kts | 82° |
| 2026-05-06 20:44 | 41.55168 | -87.79150 | 4709 ft | 276 kts | 82° |
| 2026-05-06 20:44 | 41.55392 | -87.76628 | 4619 ft | 270 kts | 82° |
| 2026-05-06 20:44 | 41.55606 | -87.74179 | 4536 ft | 261 kts | 82° |
| 2026-05-06 20:45 | 41.55809 | -87.71829 | 4464 ft | 247 kts | 82° |
| 2026-05-06 20:45 | 41.56115 | -87.69639 | 4437 ft | 235 kts | 62° |
| 2026-05-06 20:45 | 41.57118 | -87.68036 | 4410 ft | 222 kts | 36° |
| 2026-05-06 20:45 | 41.58312 | -87.66662 | 4373 ft | 230 kts | 37° |
| 2026-05-06 20:46 | 41.59520 | -87.65247 | 4316 ft | 231 kts | 37° |
| 2026-05-06 20:46 | 41.60704 | -87.63851 | 4281 ft | 223 kts | 37° |
| 2026-05-06 20:46 | 41.61853 | -87.62511 | 4159 ft | 215 kts | 37° |
| 2026-05-06 20:46 | 41.62965 | -87.61209 | 4126 ft | 212 kts | 36° |
| 2026-05-06 20:47 | 41.64062 | -87.59931 | 4058 ft | 205 kts | 37° |
| 2026-05-06 20:47 | 41.65166 | -87.58770 | 4025 ft | 200 kts | 19° |
| 2026-05-06 20:47 | 41.66458 | -87.58661 | 3815 ft | 182 kts | 331° |
| 2026-05-06 20:47 | 41.67421 | -87.59600 | 3650 ft | 165 kts | 313° |
| 2026-05-06 20:48 | 41.68214 | -87.60663 | 3482 ft | 161 kts | 310° |
| 2026-05-06 20:48 | 41.68991 | -87.61758 | 3264 ft | 164 kts | 310° |
| 2026-05-06 20:48 | 41.69774 | -87.62863 | 3033 ft | 164 kts | 310° |
| 2026-05-06 20:48 | 41.70552 | -87.63961 | 2831 ft | 162 kts | 310° |
| 2026-05-06 20:49 | 41.71324 | -87.65054 | 2613 ft | 161 kts | 311° |
| 2026-05-06 20:49 | 41.72087 | -87.66132 | 2398 ft | 158 kts | 310° |
| 2026-05-06 20:49 | 41.72841 | -87.67197 | 2156 ft | 156 kts | 310° |
| 2026-05-06 20:49 | 41.73569 | -87.68221 | 1938 ft | 148 kts | 310° |
| 2026-05-06 20:50 | 41.74267 | -87.69209 | 1776 ft | 146 kts | 310° |
| 2026-05-06 20:50 | 41.74961 | -87.70190 | 1606 ft | 144 kts | 309° |
| 2026-05-06 20:50 | 41.75419 | -87.70835 | 1440 ft | 145 kts | 309° |
| 2026-05-06 20:50 | 41.76078 | -87.71777 | 1256 ft | 135 kts | 307° |
| 2026-05-06 20:51 | 41.76719 | -87.72676 | 1046 ft | 132 kts | 307° |
| 2026-05-06 20:51 | 41.77568 | -87.73863 | 806 ft | 134 kts | 306° |
| 2026-05-06 20:51 | 41.78201 | -87.74759 | 635 ft | 128 kts | 309° |
| 2026-05-06 20:51 | 41.78642 | -87.75384 | 626 ft | 47 kts | 314° |
| 2026-05-06 20:52 | 41.78793 | -87.75595 | 630 ft | 43 kts | 314° |
| 2026-05-06 20:52 | 41.78979 | -87.75781 | 636 ft | 28 kts | 337° |
| 2026-05-06 20:52 | 41.79112 | -87.75804 | 628 ft | 14 kts | 37° |
| 2026-05-06 20:52 | 41.79127 | -87.75700 | 628 ft | 13 kts | 89° |
| 2026-05-06 20:53 | 41.79079 | -87.75596 | 628 ft | 15 kts | 134° |
| 2026-05-06 20:53 | 41.79004 | -87.75490 | 628 ft | 17 kts | 132° |
| 2026-05-06 20:53 | 41.78918 | -87.75370 | 628 ft | 19 kts | 134° |
| 2026-05-06 20:53 | 41.78821 | -87.75234 | 638 ft | 22 kts | 135° |
| 2026-05-06 20:54 | 41.78719 | -87.75092 | 629 ft | 18 kts | 134° |
| 2026-05-06 20:54 | 41.78629 | -87.74964 | 627 ft | 19 kts | 136° |
| 2026-05-06 20:54 | 41.78602 | -87.74863 | 628 ft | 12 kts | 52° |
| 2026-05-06 20:54 | 41.78677 | -87.74793 | 628 ft | 15 kts | 24° |
| 2026-05-06 20:55 | 41.78764 | -87.74702 | 637 ft | 15 kts | 43° |
| 2026-05-06 20:55 | 41.78833 | -87.74612 | 633 ft | 13 kts | 43° |
| 2026-05-06 20:55 | 41.78834 | -87.74564 | 628 ft | 7 kts | 131° |
| 2026-05-06 20:55 | 41.78797 | -87.74513 | 630 ft | 8 kts | 133° |
| 2026-05-06 20:56 | 41.78783 | -87.74492 | 628 ft | 2 kts | 133° |
| 2026-05-06 20:56 | 41.78781 | -87.74490 | 628 ft | 0 kts | 134° |